Saltar para o conteúdo principal

Coimbra (Aeródromo)

ID 1200548 · 40.1501, -8.4667 mapa

Última leitura · 2026-05-09 19:00 (Europe/Lisbon)

Temperatura
12.5 °C
Humidade
90 %
Pressão
1,007.0 hPa
Precipitação
1.5 mm
Radiação
375 W/m²
Velocidade do vento
11.2 km/h
Direcção do vento
SE · Sudeste

Histórico de 24 horas

Hora (Europe/Lisbon) Temperatura Humidade Pressão Chuva Vento Direcção
2026-05-09 19:00 12.5 °C 90 % 1,007.0 1.5 mm 11.2 km/h SE
2026-05-09 18:00 13.8 °C 84 % 1,006.3 4.1 mm 12.2 km/h S
2026-05-09 17:00 15.8 °C 80 % 1,005.3 0.0 mm 14.8 km/h S
2026-05-09 16:00 14.4 °C 81 % 1,005.1 4.1 mm 12.6 km/h SW
2026-05-09 15:00 18.1 °C 61 % 1,003.7 0.1 mm 13.3 km/h SW
2026-05-09 14:00 17.8 °C 64 % 1,003.5 0.0 mm 18.0 km/h S
2026-05-09 13:00 16.6 °C 68 % 1,003.7 0.0 mm 16.6 km/h S
2026-05-09 12:00 16.9 °C 67 % 1,003.5 0.0 mm 19.4 km/h S
2026-05-09 11:00 14.8 °C 78 % 1,003.8 0.0 mm 16.9 km/h S
2026-05-09 10:00 13.2 °C 84 % 1,004.3 0.1 mm 9.7 km/h S
2026-05-09 09:00 13.8 °C 81 % 1,004.0 0.1 mm 17.3 km/h S
2026-05-09 08:00 13.3 °C 85 % 1,003.9 0.0 mm 11.2 km/h SE
2026-05-09 07:00 12.8 °C 85 % 1,004.0 2.7 mm 6.8 km/h SE
2026-05-09 06:00 13.6 °C 77 % 1,004.2 0.0 mm 15.8 km/h SE
2026-05-09 05:00 13.8 °C 76 % 1,004.6 0.0 mm 17.3 km/h SE
2026-05-09 04:00 14.1 °C 72 % 1,004.5 0.0 mm 22.0 km/h SE
2026-05-09 03:00 13.9 °C 73 % 1,005.5 0.0 mm 19.4 km/h SE
2026-05-09 02:00 14.1 °C 76 % 1,005.7 0.0 mm 16.6 km/h S
2026-05-09 01:00 13.9 °C 78 % 1,005.7 0.0 mm 13.7 km/h S
2026-05-09 00:00 13.1 °C 91 % 1,006.5 0.4 mm 17.6 km/h SE
2026-05-08 23:00 13.8 °C 87 % 1,007.2 1.4 mm 16.9 km/h S
2026-05-08 22:00 16.0 °C 66 % 1,006.5 0.0 mm 19.1 km/h S
2026-05-08 21:00 17.3 °C 57 % 1,006.0 0.0 mm 4.7 km/h S
2026-05-08 20:00 18.5 °C 49 % 1,006.1 0.0 mm 2.2 km/h E